sensor_id;sensor_type;location;lat;lon;timestamp;P1;durP1;ratioP1;P2;durP2;ratioP2
20443;SDS011;10381;53.730;10.010;2023-02-12T00:02:30;665.23;;;402.63;;
20443;SDS011;10381;53.730;10.010;2023-02-12T00:06:30;655.13;;;397.20;;
20443;SDS011;10381;53.730;10.010;2023-02-12T00:10:30;643.47;;;404.75;;
20443;SDS011;10381;53.730;10.010;2023-02-12T00:14:31;642.13;;;408.67;;
20443;SDS011;10381;53.730;10.010;2023-02-12T00:18:31;650.67;;;405.05;;
20443;SDS011;10381;53.730;10.010;2023-02-12T00:22:31;645.50;;;397.10;;
20443;SDS011;10381;53.730;10.010;2023-02-12T00:26:32;649.88;;;404.05;;
20443;SDS011;10381;53.730;10.010;2023-02-12T00:30:32;642.60;;;401.30;;
20443;SDS011;10381;53.730;10.010;2023-02-12T00:34:33;642.72;;;398.80;;
20443;SDS011;10381;53.730;10.010;2023-02-12T00:38:34;659.37;;;400.10;;
20443;SDS011;10381;53.730;10.010;2023-02-12T00:42:34;644.88;;;404.30;;
20443;SDS011;10381;53.730;10.010;2023-02-12T00:46:34;647.07;;;404.47;;
20443;SDS011;10381;53.730;10.010;2023-02-12T00:50:35;654.25;;;408.30;;
20443;SDS011;10381;53.730;10.010;2023-02-12T00:54:35;633.10;;;405.08;;
20443;SDS011;10381;53.730;10.010;2023-02-12T00:58:35;633.00;;;398.13;;
20443;SDS011;10381;53.730;10.010;2023-02-12T01:02:36;625.03;;;383.17;;
20443;SDS011;10381;53.730;10.010;2023-02-12T01:06:36;625.03;;;389.00;;
20443;SDS011;10381;53.730;10.010;2023-02-12T01:10:36;630.73;;;397.03;;
20443;SDS011;10381;53.730;10.010;2023-02-12T01:14:37;642.23;;;393.60;;
20443;SDS011;10381;53.730;10.010;2023-02-12T01:18:37;631.70;;;400.13;;
20443;SDS011;10381;53.730;10.010;2023-02-12T01:22:37;621.83;;;392.75;;
20443;SDS011;10381;53.730;10.010;2023-02-12T01:26:38;629.38;;;406.85;;
20443;SDS011;10381;53.730;10.010;2023-02-12T01:30:38;630.90;;;392.93;;
20443;SDS011;10381;53.730;10.010;2023-02-12T01:34:38;648.67;;;403.83;;
20443;SDS011;10381;53.730;10.010;2023-02-12T01:38:39;638.93;;;399.43;;
20443;SDS011;10381;53.730;10.010;2023-02-12T01:42:39;642.63;;;403.85;;
20443;SDS011;10381;53.730;10.010;2023-02-12T01:46:40;643.42;;;401.55;;
20443;SDS011;10381;53.730;10.010;2023-02-12T01:50:42;639.97;;;405.95;;
20443;SDS011;10381;53.730;10.010;2023-02-12T01:54:47;644.10;;;418.10;;
20443;SDS011;10381;53.730;10.010;2023-02-12T01:58:50;648.85;;;422.08;;
20443;SDS011;10381;53.730;10.010;2023-02-12T02:02:56;646.95;;;408.52;;
20443;SDS011;10381;53.730;10.010;2023-02-12T02:07:00;660.88;;;417.60;;
20443;SDS011;10381;53.730;10.010;2023-02-12T02:11:02;653.92;;;427.60;;
20443;SDS011;10381;53.730;10.010;2023-02-12T02:15:24;645.63;;;421.73;;
20443;SDS011;10381;53.730;10.010;2023-02-12T02:36:34;680.78;;;439.13;;
20443;SDS011;10381;53.730;10.010;2023-02-12T02:40:40;674.38;;;437.00;;
20443;SDS011;10381;53.730;10.010;2023-02-12T02:44:58;662.95;;;430.60;;
20443;SDS011;10381;53.730;10.010;2023-02-12T02:49:06;660.38;;;427.88;;
20443;SDS011;10381;53.730;10.010;2023-02-12T02:53:17;673.05;;;444.20;;
20443;SDS011;10381;53.730;10.010;2023-02-12T02:57:30;672.20;;;418.63;;
20443;SDS011;10381;53.730;10.010;2023-02-12T03:02:05;676.63;;;424.50;;
20443;SDS011;10381;53.730;10.010;2023-02-12T03:06:22;662.08;;;436.55;;
20443;SDS011;10381;53.730;10.010;2023-02-12T03:10:24;668.00;;;428.17;;
20443;SDS011;10381;53.730;10.010;2023-02-12T03:14:29;673.38;;;432.50;;
20443;SDS011;10381;53.730;10.010;2023-02-12T03:23:23;670.42;;;436.95;;
20443;SDS011;10381;53.730;10.010;2023-02-12T03:35:58;641.92;;;415.50;;
20443;SDS011;10381;53.730;10.010;2023-02-12T03:44:43;649.60;;;412.90;;
20443;SDS011;10381;53.730;10.010;2023-02-12T03:49:00;653.33;;;419.63;;
20443;SDS011;10381;53.730;10.010;2023-02-12T03:53:09;635.88;;;404.60;;
20443;SDS011;10381;53.730;10.010;2023-02-12T03:57:11;642.75;;;412.23;;
20443;SDS011;10381;53.730;10.010;2023-02-12T04:01:15;635.85;;;408.25;;
20443;SDS011;10381;53.730;10.010;2023-02-12T04:05:17;667.05;;;417.55;;
20443;SDS011;10381;53.730;10.010;2023-02-12T04:09:20;649.08;;;415.02;;
20443;SDS011;10381;53.730;10.010;2023-02-12T04:13:25;661.97;;;418.25;;
20443;SDS011;10381;53.730;10.010;2023-02-12T04:22:14;663.50;;;421.88;;
20443;SDS011;10381;53.730;10.010;2023-02-12T04:26:33;665.35;;;415.38;;
20443;SDS011;10381;53.730;10.010;2023-02-12T04:30:43;667.33;;;414.27;;
20443;SDS011;10381;53.730;10.010;2023-02-12T04:39:06;670.03;;;395.70;;
20443;SDS011;10381;53.730;10.010;2023-02-12T04:43:11;702.90;;;408.58;;
20443;SDS011;10381;53.730;10.010;2023-02-12T04:47:12;707.97;;;391.87;;
20443;SDS011;10381;53.730;10.010;2023-02-12T04:51:14;667.75;;;395.30;;
20443;SDS011;10381;53.730;10.010;2023-02-12T04:55:14;698.00;;;399.27;;
20443;SDS011;10381;53.730;10.010;2023-02-12T04:59:15;667.03;;;402.17;;
20443;SDS011;10381;53.730;10.010;2023-02-12T05:03:16;674.42;;;404.33;;
20443;SDS011;10381;53.730;10.010;2023-02-12T05:07:16;694.23;;;403.30;;
20443;SDS011;10381;53.730;10.010;2023-02-12T05:11:16;671.17;;;389.83;;
20443;SDS011;10381;53.730;10.010;2023-02-12T05:15:17;675.70;;;394.10;;
20443;SDS011;10381;53.730;10.010;2023-02-12T05:19:17;679.88;;;393.50;;
20443;SDS011;10381;53.730;10.010;2023-02-12T05:23:18;666.83;;;400.73;;
20443;SDS011;10381;53.730;10.010;2023-02-12T05:27:18;674.90;;;384.83;;
20443;SDS011;10381;53.730;10.010;2023-02-12T05:31:18;651.33;;;381.67;;
20443;SDS011;10381;53.730;10.010;2023-02-12T05:35:19;628.72;;;386.38;;
20443;SDS011;10381;53.730;10.010;2023-02-12T05:39:20;678.93;;;397.67;;
20443;SDS011;10381;53.730;10.010;2023-02-12T05:43:20;657.63;;;403.67;;
20443;SDS011;10381;53.730;10.010;2023-02-12T05:47:20;645.73;;;377.67;;
20443;SDS011;10381;53.730;10.010;2023-02-12T05:51:22;648.80;;;383.87;;
20443;SDS011;10381;53.730;10.010;2023-02-12T05:55:24;643.53;;;374.27;;
20443;SDS011;10381;53.730;10.010;2023-02-12T05:59:24;635.90;;;376.70;;
20443;SDS011;10381;53.730;10.010;2023-02-12T06:03:25;643.90;;;385.67;;
20443;SDS011;10381;53.730;10.010;2023-02-12T06:07:25;644.73;;;376.87;;
20443;SDS011;10381;53.730;10.010;2023-02-12T06:11:26;657.33;;;377.67;;
20443;SDS011;10381;53.730;10.010;2023-02-12T06:15:26;635.22;;;366.88;;
20443;SDS011;10381;53.730;10.010;2023-02-12T06:19:27;626.17;;;364.92;;
20443;SDS011;10381;53.730;10.010;2023-02-12T06:23:27;645.07;;;381.17;;
20443;SDS011;10381;53.730;10.010;2023-02-12T06:27:27;644.30;;;380.70;;
20443;SDS011;10381;53.730;10.010;2023-02-12T06:31:29;655.97;;;377.23;;
20443;SDS011;10381;53.730;10.010;2023-02-12T06:35:33;662.55;;;373.50;;
20443;SDS011;10381;53.730;10.010;2023-02-12T06:39:34;648.65;;;369.27;;
20443;SDS011;10381;53.730;10.010;2023-02-12T06:43:35;657.47;;;370.10;;
20443;SDS011;10381;53.730;10.010;2023-02-12T06:47:35;657.47;;;371.98;;
20443;SDS011;10381;53.730;10.010;2023-02-12T06:51:35;645.23;;;367.67;;
20443;SDS011;10381;53.730;10.010;2023-02-12T06:55:37;645.97;;;376.25;;
20443;SDS011;10381;53.730;10.010;2023-02-12T06:59:37;635.72;;;376.70;;
20443;SDS011;10381;53.730;10.010;2023-02-12T07:03:38;696.55;;;380.73;;
20443;SDS011;10381;53.730;10.010;2023-02-12T07:07:40;664.03;;;389.00;;
20443;SDS011;10381;53.730;10.010;2023-02-12T07:11:40;663.93;;;381.33;;
20443;SDS011;10381;53.730;10.010;2023-02-12T07:15:40;655.37;;;388.27;;
20443;SDS011;10381;53.730;10.010;2023-02-12T07:19:41;660.67;;;387.90;;
20443;SDS011;10381;53.730;10.010;2023-02-12T07:23:41;632.78;;;401.75;;
20443;SDS011;10381;53.730;10.010;2023-02-12T07:27:47;648.35;;;390.67;;
20443;SDS011;10381;53.730;10.010;2023-02-12T07:31:47;658.08;;;389.17;;
20443;SDS011;10381;53.730;10.010;2023-02-12T07:35:47;640.80;;;384.80;;
20443;SDS011;10381;53.730;10.010;2023-02-12T07:39:48;651.43;;;387.77;;
20443;SDS011;10381;53.730;10.010;2023-02-12T07:43:52;651.83;;;389.13;;
20443;SDS011;10381;53.730;10.010;2023-02-12T07:47:54;659.80;;;405.42;;
20443;SDS011;10381;53.730;10.010;2023-02-12T07:51:54;695.92;;;418.70;;
20443;SDS011;10381;53.730;10.010;2023-02-12T07:56:02;649.63;;;405.33;;
20443;SDS011;10381;53.730;10.010;2023-02-12T08:00:10;644.78;;;404.83;;
20443;SDS011;10381;53.730;10.010;2023-02-12T08:04:12;644.08;;;387.58;;
20443;SDS011;10381;53.730;10.010;2023-02-12T08:08:14;651.67;;;398.63;;
20443;SDS011;10381;53.730;10.010;2023-02-12T08:12:15;643.47;;;396.98;;
20443;SDS011;10381;53.730;10.010;2023-02-12T08:16:17;643.40;;;409.05;;
20443;SDS011;10381;53.730;10.010;2023-02-12T08:20:19;623.47;;;391.73;;
20443;SDS011;10381;53.730;10.010;2023-02-12T08:24:19;646.10;;;399.80;;
20443;SDS011;10381;53.730;10.010;2023-02-12T08:28:21;653.55;;;396.42;;
20443;SDS011;10381;53.730;10.010;2023-02-12T08:32:22;653.40;;;416.48;;
20443;SDS011;10381;53.730;10.010;2023-02-12T08:36:26;654.97;;;412.80;;
20443;SDS011;10381;53.730;10.010;2023-02-12T08:40:28;645.60;;;400.50;;
20443;SDS011;10381;53.730;10.010;2023-02-12T08:44:29;646.77;;;415.37;;
20443;SDS011;10381;53.730;10.010;2023-02-12T08:48:29;650.58;;;400.25;;
20443;SDS011;10381;53.730;10.010;2023-02-12T08:52:30;648.42;;;411.92;;
20443;SDS011;10381;53.730;10.010;2023-02-12T08:56:31;661.33;;;422.77;;
20443;SDS011;10381;53.730;10.010;2023-02-12T09:00:32;660.53;;;417.95;;
20443;SDS011;10381;53.730;10.010;2023-02-12T09:04:33;669.70;;;417.93;;
20443;SDS011;10381;53.730;10.010;2023-02-12T09:08:35;648.72;;;423.15;;
20443;SDS011;10381;53.730;10.010;2023-02-12T09:12:36;635.42;;;423.50;;
20443;SDS011;10381;53.730;10.010;2023-02-12T09:16:37;675.87;;;453.80;;
20443;SDS011;10381;53.730;10.010;2023-02-12T09:20:40;651.70;;;439.15;;
20443;SDS011;10381;53.730;10.010;2023-02-12T09:24:41;651.95;;;429.08;;
20443;SDS011;10381;53.730;10.010;2023-02-12T09:28:42;669.67;;;421.30;;
20443;SDS011;10381;53.730;10.010;2023-02-12T09:32:43;648.72;;;431.42;;
20443;SDS011;10381;53.730;10.010;2023-02-12T09:36:43;649.72;;;428.88;;
20443;SDS011;10381;53.730;10.010;2023-02-12T09:45:25;650.70;;;423.08;;
20443;SDS011;10381;53.730;10.010;2023-02-12T09:53:49;639.08;;;435.75;;
20443;SDS011;10381;53.730;10.010;2023-02-12T09:58:00;637.58;;;431.10;;
20443;SDS011;10381;53.730;10.010;2023-02-12T10:02:11;652.85;;;426.20;;
20443;SDS011;10381;53.730;10.010;2023-02-12T10:06:14;672.03;;;433.60;;
20443;SDS011;10381;53.730;10.010;2023-02-12T10:10:27;677.35;;;457.80;;
20443;SDS011;10381;53.730;10.010;2023-02-12T10:19:02;673.90;;;449.10;;
20443;SDS011;10381;53.730;10.010;2023-02-12T10:23:31;665.80;;;446.08;;
20443;SDS011;10381;53.730;10.010;2023-02-12T10:27:42;681.40;;;473.67;;
20443;SDS011;10381;53.730;10.010;2023-02-12T10:31:49;666.85;;;441.80;;
20443;SDS011;10381;53.730;10.010;2023-02-12T10:35:55;666.50;;;441.52;;
20443;SDS011;10381;53.730;10.010;2023-02-12T10:40:23;674.75;;;488.45;;
20443;SDS011;10381;53.730;10.010;2023-02-12T10:44:27;680.92;;;480.60;;
20443;SDS011;10381;53.730;10.010;2023-02-12T10:48:35;664.80;;;465.77;;
20443;SDS011;10381;53.730;10.010;2023-02-12T10:52:53;667.92;;;487.38;;
20443;SDS011;10381;53.730;10.010;2023-02-12T10:56:57;664.22;;;491.98;;
20443;SDS011;10381;53.730;10.010;2023-02-12T11:00:59;664.13;;;496.75;;
20443;SDS011;10381;53.730;10.010;2023-02-12T11:09:28;695.67;;;541.75;;
20443;SDS011;10381;53.730;10.010;2023-02-12T11:13:30;695.95;;;538.67;;
20443;SDS011;10381;53.730;10.010;2023-02-12T11:17:32;716.25;;;552.05;;
20443;SDS011;10381;53.730;10.010;2023-02-12T11:21:35;694.58;;;549.80;;
20443;SDS011;10381;53.730;10.010;2023-02-12T11:25:36;725.28;;;547.25;;
20443;SDS011;10381;53.730;10.010;2023-02-12T11:29:37;782.08;;;577.33;;
20443;SDS011;10381;53.730;10.010;2023-02-12T11:33:37;725.28;;;575.83;;
20443;SDS011;10381;53.730;10.010;2023-02-12T11:37:41;726.58;;;568.22;;
20443;SDS011;10381;53.730;10.010;2023-02-12T11:41:42;741.38;;;579.95;;
20443;SDS011;10381;53.730;10.010;2023-02-12T11:45:43;734.72;;;558.60;;
20443;SDS011;10381;53.730;10.010;2023-02-12T11:49:52;728.10;;;548.42;;
20443;SDS011;10381;53.730;10.010;2023-02-12T11:53:56;735.15;;;561.97;;
20443;SDS011;10381;53.730;10.010;2023-02-12T12:02:22;744.45;;;581.08;;
20443;SDS011;10381;53.730;10.010;2023-02-12T12:10:57;759.03;;;593.55;;
20443;SDS011;10381;53.730;10.010;2023-02-12T12:15:26;745.03;;;578.45;;
20443;SDS011;10381;53.730;10.010;2023-02-12T12:19:51;771.03;;;602.58;;
20443;SDS011;10381;53.730;10.010;2023-02-12T12:24:00;757.15;;;592.30;;
20443;SDS011;10381;53.730;10.010;2023-02-12T12:32:28;754.30;;;606.67;;
20443;SDS011;10381;53.730;10.010;2023-02-12T12:41:06;755.58;;;599.15;;
20443;SDS011;10381;53.730;10.010;2023-02-12T12:50:20;729.78;;;595.95;;
20443;SDS011;10381;53.730;10.010;2023-02-12T13:07:54;765.63;;;608.50;;
20443;SDS011;10381;53.730;10.010;2023-02-12T13:16:34;800.15;;;612.78;;
20443;SDS011;10381;53.730;10.010;2023-02-12T13:29:17;812.38;;;628.03;;
20443;SDS011;10381;53.730;10.010;2023-02-12T13:33:23;820.90;;;635.05;;
20443;SDS011;10381;53.730;10.010;2023-02-12T13:37:37;814.53;;;620.55;;
20443;SDS011;10381;53.730;10.010;2023-02-12T13:41:46;810.03;;;626.88;;
20443;SDS011;10381;53.730;10.010;2023-02-12T13:54:35;892.85;;;683.08;;
20443;SDS011;10381;53.730;10.010;2023-02-12T13:59:00;906.75;;;676.78;;
20443;SDS011;10381;53.730;10.010;2023-02-12T14:03:06;909.67;;;688.40;;
20443;SDS011;10381;53.730;10.010;2023-02-12T14:07:08;916.75;;;715.97;;
20443;SDS011;10381;53.730;10.010;2023-02-12T14:11:15;887.30;;;704.15;;
20443;SDS011;10381;53.730;10.010;2023-02-12T14:15:24;871.75;;;691.58;;
20443;SDS011;10381;53.730;10.010;2023-02-12T14:23:49;867.33;;;685.05;;
20443;SDS011;10381;53.730;10.010;2023-02-12T14:27:51;894.20;;;697.67;;
20443;SDS011;10381;53.730;10.010;2023-02-12T14:31:53;892.83;;;694.25;;
20443;SDS011;10381;53.730;10.010;2023-02-12T14:36:15;887.97;;;697.50;;
20443;SDS011;10381;53.730;10.010;2023-02-12T14:48:38;887.95;;;674.55;;
20443;SDS011;10381;53.730;10.010;2023-02-12T14:52:56;922.03;;;676.58;;
20443;SDS011;10381;53.730;10.010;2023-02-12T14:57:07;923.72;;;686.95;;
20443;SDS011;10381;53.730;10.010;2023-02-12T15:01:17;923.42;;;682.67;;
20443;SDS011;10381;53.730;10.010;2023-02-12T15:05:30;972.67;;;715.42;;
20443;SDS011;10381;53.730;10.010;2023-02-12T15:09:36;981.67;;;738.42;;
20443;SDS011;10381;53.730;10.010;2023-02-12T15:13:46;987.15;;;721.97;;
20443;SDS011;10381;53.730;10.010;2023-02-12T15:17:57;1012.03;;;735.08;;
20443;SDS011;10381;53.730;10.010;2023-02-12T15:22:00;1015.08;;;731.88;;
20443;SDS011;10381;53.730;10.010;2023-02-12T15:26:02;1017.72;;;743.08;;
20443;SDS011;10381;53.730;10.010;2023-02-12T15:30:04;1045.45;;;752.10;;
20443;SDS011;10381;53.730;10.010;2023-02-12T15:34:05;1042.70;;;752.15;;
20443;SDS011;10381;53.730;10.010;2023-02-12T15:38:06;1046.03;;;759.75;;
20443;SDS011;10381;53.730;10.010;2023-02-12T15:46:33;1042.38;;;768.90;;
20443;SDS011;10381;53.730;10.010;2023-02-12T15:50:34;1051.27;;;784.57;;
20443;SDS011;10381;53.730;10.010;2023-02-12T15:54:44;1061.10;;;787.58;;
20443;SDS011;10381;53.730;10.010;2023-02-12T16:02:50;1061.82;;;796.65;;
20443;SDS011;10381;53.730;10.010;2023-02-12T16:06:52;1072.60;;;808.33;;
20443;SDS011;10381;53.730;10.010;2023-02-12T16:10:52;1061.47;;;796.35;;
20443;SDS011;10381;53.730;10.010;2023-02-12T16:14:55;1070.88;;;807.97;;
20443;SDS011;10381;53.730;10.010;2023-02-12T16:19:04;1060.22;;;799.13;;
20443;SDS011;10381;53.730;10.010;2023-02-12T16:23:06;1062.88;;;804.30;;
20443;SDS011;10381;53.730;10.010;2023-02-12T16:27:16;1066.13;;;797.90;;
20443;SDS011;10381;53.730;10.010;2023-02-12T16:31:19;1045.43;;;796.35;;
20443;SDS011;10381;53.730;10.010;2023-02-12T16:40:06;1047.57;;;797.35;;
20443;SDS011;10381;53.730;10.010;2023-02-12T16:48:15;1043.65;;;797.22;;
20443;SDS011;10381;53.730;10.010;2023-02-12T16:52:37;1047.68;;;809.17;;
20443;SDS011;10381;53.730;10.010;2023-02-12T16:56:39;1057.03;;;818.22;;
20443;SDS011;10381;53.730;10.010;2023-02-12T17:00:39;1061.78;;;820.50;;
20443;SDS011;10381;53.730;10.010;2023-02-12T17:04:40;1042.13;;;810.40;;
20443;SDS011;10381;53.730;10.010;2023-02-12T17:08:41;1055.82;;;830.53;;
20443;SDS011;10381;53.730;10.010;2023-02-12T17:12:48;1039.37;;;803.67;;
20443;SDS011;10381;53.730;10.010;2023-02-12T17:16:49;1045.00;;;808.10;;
20443;SDS011;10381;53.730;10.010;2023-02-12T17:20:54;1038.70;;;809.07;;
20443;SDS011;10381;53.730;10.010;2023-02-12T17:24:57;1041.65;;;808.05;;
20443;SDS011;10381;53.730;10.010;2023-02-12T17:28:57;1036.10;;;810.53;;
20443;SDS011;10381;53.730;10.010;2023-02-12T17:33:04;1023.13;;;788.15;;
20443;SDS011;10381;53.730;10.010;2023-02-12T17:37:04;1027.90;;;789.28;;
20443;SDS011;10381;53.730;10.010;2023-02-12T17:41:09;1009.83;;;790.67;;
20443;SDS011;10381;53.730;10.010;2023-02-12T17:45:10;1022.72;;;789.70;;
20443;SDS011;10381;53.730;10.010;2023-02-12T17:49:10;1020.33;;;787.50;;
20443;SDS011;10381;53.730;10.010;2023-02-12T17:53:10;1001.88;;;780.25;;
20443;SDS011;10381;53.730;10.010;2023-02-12T17:57:12;997.25;;;775.00;;
20443;SDS011;10381;53.730;10.010;2023-02-12T18:01:14;987.40;;;765.72;;
20443;SDS011;10381;53.730;10.010;2023-02-12T18:05:16;992.67;;;768.95;;
20443;SDS011;10381;53.730;10.010;2023-02-12T18:09:16;988.50;;;767.10;;
20443;SDS011;10381;53.730;10.010;2023-02-12T18:13:16;986.60;;;763.93;;
20443;SDS011;10381;53.730;10.010;2023-02-12T18:17:17;992.80;;;769.00;;
20443;SDS011;10381;53.730;10.010;2023-02-12T18:21:17;1006.10;;;753.70;;
20443;SDS011;10381;53.730;10.010;2023-02-12T18:25:17;998.90;;;764.40;;
20443;SDS011;10381;53.730;10.010;2023-02-12T18:29:17;975.33;;;755.17;;
20443;SDS011;10381;53.730;10.010;2023-02-12T18:33:18;974.47;;;764.35;;
20443;SDS011;10381;53.730;10.010;2023-02-12T18:37:18;974.47;;;761.07;;
20443;SDS011;10381;53.730;10.010;2023-02-12T18:41:28;1018.13;;;787.33;;
20443;SDS011;10381;53.730;10.010;2023-02-12T18:45:30;1111.03;;;780.38;;
20443;SDS011;10381;53.730;10.010;2023-02-12T18:49:30;969.77;;;743.23;;
20443;SDS011;10381;53.730;10.010;2023-02-12T18:53:30;946.50;;;733.60;;
20443;SDS011;10381;53.730;10.010;2023-02-12T18:57:30;934.10;;;724.78;;
20443;SDS011;10381;53.730;10.010;2023-02-12T19:01:31;920.70;;;716.80;;
20443;SDS011;10381;53.730;10.010;2023-02-12T19:05:33;902.72;;;700.30;;
20443;SDS011;10381;53.730;10.010;2023-02-12T19:09:33;889.13;;;692.50;;
20443;SDS011;10381;53.730;10.010;2023-02-12T19:13:34;895.35;;;704.10;;
20443;SDS011;10381;53.730;10.010;2023-02-12T19:17:34;879.97;;;680.58;;
20443;SDS011;10381;53.730;10.010;2023-02-12T19:21:34;871.75;;;684.30;;
20443;SDS011;10381;53.730;10.010;2023-02-12T19:25:35;860.65;;;674.92;;
20443;SDS011;10381;53.730;10.010;2023-02-12T19:29:42;862.03;;;684.35;;
20443;SDS011;10381;53.730;10.010;2023-02-12T19:33:42;850.58;;;668.15;;
20443;SDS011;10381;53.730;10.010;2023-02-12T19:37:43;858.03;;;664.30;;
20443;SDS011;10381;53.730;10.010;2023-02-12T19:41:44;855.35;;;675.53;;
20443;SDS011;10381;53.730;10.010;2023-02-12T19:45:45;847.97;;;670.88;;
20443;SDS011;10381;53.730;10.010;2023-02-12T19:49:46;841.38;;;655.92;;
20443;SDS011;10381;53.730;10.010;2023-02-12T19:53:46;848.63;;;660.65;;
20443;SDS011;10381;53.730;10.010;2023-02-12T19:57:47;845.63;;;666.08;;
20443;SDS011;10381;53.730;10.010;2023-02-12T20:01:48;857.25;;;674.83;;
20443;SDS011;10381;53.730;10.010;2023-02-12T20:05:49;859.78;;;666.10;;
20443;SDS011;10381;53.730;10.010;2023-02-12T20:09:54;863.65;;;664.92;;
20443;SDS011;10381;53.730;10.010;2023-02-12T20:13:54;868.00;;;678.75;;
20443;SDS011;10381;53.730;10.010;2023-02-12T20:17:56;869.95;;;685.85;;
20443;SDS011;10381;53.730;10.010;2023-02-12T20:21:58;849.38;;;680.60;;
20443;SDS011;10381;53.730;10.010;2023-02-12T20:26:05;857.83;;;671.78;;
20443;SDS011;10381;53.730;10.010;2023-02-12T20:30:07;860.00;;;668.92;;
20443;SDS011;10381;53.730;10.010;2023-02-12T20:34:10;859.42;;;669.85;;
20443;SDS011;10381;53.730;10.010;2023-02-12T20:38:12;866.00;;;674.13;;
20443;SDS011;10381;53.730;10.010;2023-02-12T20:42:13;847.60;;;653.35;;
20443;SDS011;10381;53.730;10.010;2023-02-12T20:46:15;856.87;;;663.47;;
20443;SDS011;10381;53.730;10.010;2023-02-12T20:50:17;847.65;;;646.50;;
20443;SDS011;10381;53.730;10.010;2023-02-12T20:54:17;846.13;;;644.85;;
20443;SDS011;10381;53.730;10.010;2023-02-12T20:58:17;841.87;;;643.33;;
20443;SDS011;10381;53.730;10.010;2023-02-12T21:02:18;857.33;;;646.30;;
20443;SDS011;10381;53.730;10.010;2023-02-12T21:06:18;854.13;;;636.03;;
20443;SDS011;10381;53.730;10.010;2023-02-12T21:10:20;857.97;;;633.63;;
20443;SDS011;10381;53.730;10.010;2023-02-12T21:14:22;865.88;;;649.90;;
20443;SDS011;10381;53.730;10.010;2023-02-12T21:18:22;858.97;;;637.53;;
20443;SDS011;10381;53.730;10.010;2023-02-12T21:22:25;864.72;;;643.00;;
20443;SDS011;10381;53.730;10.010;2023-02-12T21:26:26;849.17;;;643.57;;
20443;SDS011;10381;53.730;10.010;2023-02-12T21:30:27;851.47;;;648.80;;
20443;SDS011;10381;53.730;10.010;2023-02-12T21:34:28;852.70;;;620.53;;
20443;SDS011;10381;53.730;10.010;2023-02-12T21:38:30;854.08;;;651.90;;
20443;SDS011;10381;53.730;10.010;2023-02-12T21:42:31;862.63;;;644.33;;
20443;SDS011;10381;53.730;10.010;2023-02-12T21:46:32;858.07;;;638.43;;
20443;SDS011;10381;53.730;10.010;2023-02-12T21:50:33;861.17;;;617.97;;
20443;SDS011;10381;53.730;10.010;2023-02-12T21:54:34;847.70;;;612.13;;
20443;SDS011;10381;53.730;10.010;2023-02-12T21:58:34;875.45;;;624.10;;
20443;SDS011;10381;53.730;10.010;2023-02-12T22:02:34;868.53;;;618.30;;
20443;SDS011;10381;53.730;10.010;2023-02-12T22:06:35;876.30;;;626.77;;
20443;SDS011;10381;53.730;10.010;2023-02-12T22:10:39;866.25;;;631.75;;
20443;SDS011;10381;53.730;10.010;2023-02-12T22:14:40;883.83;;;658.90;;
20443;SDS011;10381;53.730;10.010;2023-02-12T22:18:40;887.97;;;644.67;;
20443;SDS011;10381;53.730;10.010;2023-02-12T22:22:42;877.80;;;650.67;;
20443;SDS011;10381;53.730;10.010;2023-02-12T22:26:42;902.43;;;660.63;;
20443;SDS011;10381;53.730;10.010;2023-02-12T22:30:43;912.92;;;662.97;;
20443;SDS011;10381;53.730;10.010;2023-02-12T22:34:43;938.08;;;653.03;;
20443;SDS011;10381;53.730;10.010;2023-02-12T22:38:44;929.37;;;656.20;;
20443;SDS011;10381;53.730;10.010;2023-02-12T22:42:44;944.60;;;668.23;;
20443;SDS011;10381;53.730;10.010;2023-02-12T22:46:44;932.63;;;651.37;;
20443;SDS011;10381;53.730;10.010;2023-02-12T22:50:45;959.38;;;697.08;;
20443;SDS011;10381;53.730;10.010;2023-02-12T22:54:45;971.07;;;693.53;;
20443;SDS011;10381;53.730;10.010;2023-02-12T22:58:45;951.93;;;682.77;;
20443;SDS011;10381;53.730;10.010;2023-02-12T23:02:46;937.75;;;701.20;;
20443;SDS011;10381;53.730;10.010;2023-02-12T23:06:46;948.80;;;689.17;;
20443;SDS011;10381;53.730;10.010;2023-02-12T23:10:46;946.80;;;692.80;;
20443;SDS011;10381;53.730;10.010;2023-02-12T23:14:46;931.43;;;691.30;;
20443;SDS011;10381;53.730;10.010;2023-02-12T23:18:47;931.70;;;689.73;;
20443;SDS011;10381;53.730;10.010;2023-02-12T23:22:47;940.67;;;690.57;;
20443;SDS011;10381;53.730;10.010;2023-02-12T23:26:47;950.43;;;690.47;;
20443;SDS011;10381;53.730;10.010;2023-02-12T23:30:48;950.40;;;711.83;;
20443;SDS011;10381;53.730;10.010;2023-02-12T23:34:49;952.97;;;695.10;;
20443;SDS011;10381;53.730;10.010;2023-02-12T23:38:50;965.50;;;707.33;;
20443;SDS011;10381;53.730;10.010;2023-02-12T23:42:50;973.78;;;710.40;;
20443;SDS011;10381;53.730;10.010;2023-02-12T23:46:50;969.85;;;703.35;;
20443;SDS011;10381;53.730;10.010;2023-02-12T23:50:52;972.47;;;721.33;;
20443;SDS011;10381;53.730;10.010;2023-02-12T23:54:53;964.40;;;730.23;;
20443;SDS011;10381;53.730;10.010;2023-02-12T23:58:56;953.40;;;718.90;;
